Time;durP1;ratioP1;P1;durP2;ratioP2;P2;SDS_P1;SDS_P2;PMS_P1;PMS_P2;Temp;Humidity;BMP_temperature;BMP_pressure;BME280_temperature;BME280_humidity;BME280_pressure;Samples;Min_cycle;Max_cycle;Signal;HPM_P1;HPM_P2
2024/01/15 00:02:25;;;;;;;14.32;8.07;;;1.50;99.90;;;;;;5068998;28;20752;-74
2024/01/15 00:04:50;;;;;;;12.88;7.93;;;1.50;99.90;;;;;;5069637;28;20050;-73
2024/01/15 00:07:16;;;;;;;15.25;8.57;;;1.50;99.90;;;;;;5070556;28;22628;-73
2024/01/15 00:09:42;;;;;;;14.05;8.57;;;1.40;99.90;;;;;;5073121;28;20040;-74
2024/01/15 00:12:07;;;;;;;16.90;8.57;;;1.30;99.90;;;;;;5075006;28;20037;-73
2024/01/15 00:14:33;;;;;;;16.27;10.10;;;1.10;99.90;;;;;;5071727;28;20028;-73
2024/01/15 00:16:59;;;;;;;15.05;8.20;;;1.00;99.90;;;;;;5072396;28;20036;-73
2024/01/15 00:19:24;;;;;;;16.17;9.15;;;1.10;99.90;;;;;;5076138;28;20023;-73
2024/01/15 00:21:50;;;;;;;14.07;8.77;;;1.20;99.90;;;;;;5074209;28;20078;-74
2024/01/15 00:24:16;;;;;;;15.85;10.77;;;1.30;99.90;;;;;;5075121;28;20036;-73
2024/01/15 00:26:42;;;;;;;17.83;10.13;;;1.30;99.90;;;;;;5075559;28;20055;-73
2024/01/15 00:29:08;;;;;;;14.77;9.25;;;1.20;99.90;;;;;;5074231;28;20378;-73
2024/01/15 00:31:34;;;;;;;16.25;9.65;;;1.20;99.90;;;;;;5074715;28;20116;-73
2024/01/15 00:34:00;;;;;;;15.05;9.10;;;1.10;99.90;;;;;;5076203;28;20040;-74
2024/01/15 00:36:25;;;;;;;16.98;10.77;;;1.10;99.90;;;;;;5074059;28;20039;-73
2024/01/15 00:38:51;;;;;;;16.38;9.85;;;0.90;99.90;;;;;;5074590;28;20024;-73
2024/01/15 00:41:18;;;;;;;15.98;9.57;;;0.90;99.90;;;;;;5074000;28;20028;-73
2024/01/15 00:43:45;;;;;;;15.57;10.07;;;1.00;99.90;;;;;;5073333;28;20035;-73
2024/01/15 00:46:10;;;;;;;16.55;9.65;;;0.90;99.90;;;;;;5074266;28;20048;-73
2024/01/15 00:48:36;;;;;;;15.02;9.10;;;0.80;99.90;;;;;;5074672;28;20286;-73
2024/01/15 00:51:02;;;;;;;16.40;10.07;;;0.90;99.90;;;;;;5075017;28;20063;-73
2024/01/15 00:53:27;;;;;;;16.25;10.70;;;0.80;99.90;;;;;;5075654;28;20036;-73
2024/01/15 00:55:53;;;;;;;21.38;11.85;;;0.80;99.90;;;;;;5073270;28;20039;-73
2024/01/15 00:58:19;;;;;;;15.73;9.35;;;0.80;99.90;;;;;;5072747;28;20043;-74
2024/01/15 01:00:45;;;;;;;17.25;10.35;;;0.90;99.90;;;;;;5074856;28;20529;-73
2024/01/15 01:03:10;;;;;;;16.42;9.75;;;0.90;99.90;;;;;;5074328;28;20052;-73
2024/01/15 01:05:36;;;;;;;18.15;10.73;;;0.80;99.90;;;;;;5074029;28;20129;-73
2024/01/15 01:08:02;;;;;;;15.75;10.13;;;0.90;99.90;;;;;;5073677;28;20035;-73
2024/01/15 01:10:27;;;;;;;14.52;10.23;;;1.00;99.90;;;;;;5054495;28;20036;-74
2024/01/15 01:12:53;;;;;;;17.58;11.02;;;1.00;99.90;;;;;;5075231;28;20075;-73
2024/01/15 01:15:19;;;;;;;23.92;12.05;;;1.00;99.90;;;;;;5073163;28;20553;-73
2024/01/15 01:17:46;;;;;;;19.73;12.20;;;1.00;99.90;;;;;;5074753;28;20386;-73
2024/01/15 01:20:11;;;;;;;20.88;10.80;;;0.80;99.90;;;;;;5072139;28;20629;-73
2024/01/15 01:22:37;;;;;;;19.60;11.00;;;0.80;99.90;;;;;;5072393;28;20057;-73
2024/01/15 01:25:03;;;;;;;18.20;10.75;;;0.80;99.90;;;;;;5073552;28;20076;-73
2024/01/15 01:27:29;;;;;;;18.95;10.68;;;0.70;99.90;;;;;;5073536;28;20024;-73
2024/01/15 01:29:54;;;;;;;18.60;10.93;;;0.70;99.90;;;;;;5071809;28;20086;-73
2024/01/15 01:32:20;;;;;;;18.83;10.65;;;0.70;99.90;;;;;;5074203;28;20889;-73
2024/01/15 01:34:46;;;;;;;16.13;10.32;;;0.90;99.90;;;;;;5073314;28;20470;-73
2024/01/15 01:37:14;;;;;;;19.92;12.52;;;1.10;99.90;;;;;;5072111;28;20028;-73
2024/01/15 01:39:41;;;;;;;18.95;11.13;;;1.00;99.90;;;;;;5074595;28;20036;-73
2024/01/15 01:42:07;;;;;;;18.63;10.80;;;1.00;99.90;;;;;;5073213;28;20031;-73
2024/01/15 01:44:33;;;;;;;22.73;12.05;;;0.90;99.90;;;;;;5072699;28;20039;-73
2024/01/15 01:47:00;;;;;;;20.60;12.27;;;0.80;99.90;;;;;;5073335;28;20035;-73
2024/01/15 01:49:27;;;;;;;19.98;12.07;;;0.70;99.90;;;;;;5073589;28;20036;-73
2024/01/15 01:51:53;;;;;;;22.83;12.23;;;0.60;99.90;;;;;;5072792;28;20120;-73
2024/01/15 01:54:20;;;;;;;23.67;13.35;;;0.70;99.90;;;;;;5071968;28;20130;-73
2024/01/15 01:56:48;;;;;;;20.13;12.05;;;0.50;99.90;;;;;;5071882;28;20489;-73
2024/01/15 01:59:14;;;;;;;22.63;11.65;;;0.40;99.90;;;;;;5072166;28;20131;-73
2024/01/15 02:01:41;;;;;;;18.92;10.90;;;0.30;99.90;;;;;;5073511;28;20093;-73
2024/01/15 02:04:08;;;;;;;21.02;12.18;;;0.50;99.90;;;;;;5071912;28;20490;-73
2024/01/15 02:06:34;;;;;;;22.88;13.88;;;0.40;99.90;;;;;;5072185;28;20067;-73
2024/01/15 02:09:00;;;;;;;19.88;12.30;;;0.40;99.90;;;;;;5073961;28;20162;-74
2024/01/15 02:11:26;;;;;;;21.50;11.70;;;0.20;99.90;;;;;;5071222;28;20363;-73
2024/01/15 02:13:52;;;;;;;19.13;12.32;;;0.30;99.90;;;;;;5071459;28;20038;-73
2024/01/15 02:16:17;;;;;;;18.13;11.57;;;0.50;99.90;;;;;;5073491;28;20040;-73
2024/01/15 02:18:44;;;;;;;16.70;10.80;;;0.60;99.90;;;;;;5072630;28;20486;-73
2024/01/15 02:21:11;;;;;;;19.42;10.63;;;0.60;99.90;;;;;;5071678;28;20040;-73
2024/01/15 02:23:37;;;;;;;22.08;11.52;;;0.60;99.90;;;;;;5072908;28;20027;-73
2024/01/15 02:26:04;;;;;;;20.58;11.18;;;0.50;99.90;;;;;;5052260;28;20454;-73
2024/01/15 02:28:30;;;;;;;21.08;11.80;;;0.40;99.90;;;;;;5071577;28;20506;-73
2024/01/15 02:30:56;;;;;;;18.20;11.60;;;0.30;99.90;;;;;;5072834;28;20042;-73
2024/01/15 02:33:22;;;;;;;21.08;12.50;;;0.40;99.90;;;;;;5072725;28;20126;-73
2024/01/15 02:35:50;;;;;;;20.55;12.55;;;0.30;99.90;;;;;;5071868;28;20046;-73
2024/01/15 02:38:16;;;;;;;21.00;13.40;;;0.00;99.90;;;;;;5073824;28;20032;-73
2024/01/15 02:40:43;;;;;;;20.48;13.43;;;0.00;99.90;;;;;;5071252;28;20155;-73
2024/01/15 02:43:09;;;;;;;21.92;12.30;;;-0.10;99.90;;;;;;5071721;28;20035;-73
2024/01/15 02:45:34;;;;;;;21.40;12.30;;;-0.10;99.90;;;;;;5072706;28;20555;-73
2024/01/15 02:48:00;;;;;;;18.95;11.35;;;0.10;99.90;;;;;;5072617;28;20447;-73
2024/01/15 02:50:26;;;;;;;20.67;10.80;;;0.20;99.90;;;;;;5073397;28;20398;-73
2024/01/15 02:52:52;;;;;;;16.63;9.65;;;0.20;99.90;;;;;;5073961;28;20382;-73
2024/01/15 02:55:17;;;;;;;16.75;10.93;;;0.10;99.90;;;;;;5071301;28;20148;-73
2024/01/15 02:57:43;;;;;;;20.63;12.00;;;0.10;99.90;;;;;;5071942;28;20016;-73
2024/01/15 03:00:09;;;;;;;20.38;10.38;;;-0.10;99.90;;;;;;5072252;28;20051;-74
2024/01/15 03:02:39;;;;;;;18.63;11.15;;;-0.10;99.90;;;;;;5073287;28;20044;-73
2024/01/15 03:05:09;;;;;;;14.38;9.02;;;0.10;99.90;;;;;;5071266;28;20066;-73
2024/01/15 03:07:35;;;;;;;14.10;8.43;;;0.20;99.90;;;;;;5073409;28;20057;-73
2024/01/15 03:10:00;;;;;;;15.55;8.52;;;0.50;99.90;;;;;;5072186;28;20035;-73
2024/01/15 03:12:26;;;;;;;11.73;6.80;;;0.60;99.90;;;;;;5070715;28;20039;-73
2024/01/15 03:14:51;;;;;;;17.80;7.05;;;0.60;99.90;;;;;;5072091;28;20039;-74
2024/01/15 03:17:17;;;;;;;12.48;7.13;;;0.60;99.90;;;;;;5072346;28;20032;-74
2024/01/15 03:19:43;;;;;;;11.65;7.32;;;0.40;99.90;;;;;;5071916;28;20386;-74
2024/01/15 03:22:08;;;;;;;13.60;7.68;;;0.40;99.90;;;;;;5072973;28;20229;-73
2024/01/15 03:24:35;;;;;;;12.60;7.47;;;0.30;99.90;;;;;;5071902;28;20420;-74
2024/01/15 03:27:01;;;;;;;14.13;8.07;;;0.20;99.90;;;;;;5071566;28;20040;-73
2024/01/15 03:29:27;;;;;;;15.07;8.50;;;0.30;99.90;;;;;;5073346;28;20082;-73
2024/01/15 03:31:53;;;;;;;17.10;9.07;;;0.30;99.90;;;;;;5070969;28;20111;-73
2024/01/15 03:34:18;;;;;;;14.95;7.80;;;0.40;99.90;;;;;;5070894;28;20043;-73
2024/01/15 03:36:44;;;;;;;14.00;7.77;;;0.60;99.90;;;;;;5073264;28;20043;-74
2024/01/15 03:39:10;;;;;;;13.45;7.15;;;0.50;99.90;;;;;;5072896;28;20059;-73
2024/01/15 03:41:35;;;;;;;10.57;6.68;;;0.40;99.90;;;;;;5070849;28;20387;-73
2024/01/15 03:44:01;;;;;;;21.40;12.43;;;0.40;99.90;;;;;;5072074;28;20036;-73
2024/01/15 03:46:27;;;;;;;15.35;9.35;;;0.30;99.90;;;;;;5071787;28;20089;-74
2024/01/15 03:48:53;;;;;;;15.80;8.65;;;0.30;99.90;;;;;;5071781;28;20378;-73
2024/01/15 03:51:19;;;;;;;16.00;9.07;;;0.20;99.90;;;;;;5072124;28;20032;-73
2024/01/15 03:53:45;;;;;;;14.68;7.78;;;0.00;99.90;;;;;;5071278;28;20087;-73
2024/01/15 03:56:11;;;;;;;14.18;7.28;;;0.10;99.90;;;;;;5071076;28;20039;-73
2024/01/15 03:58:36;;;;;;;13.38;8.13;;;0.10;99.90;;;;;;5073009;28;20509;-73
2024/01/15 04:01:02;;;;;;;15.35;7.68;;;0.20;99.90;;;;;;5069646;28;20371;-74
2024/01/15 04:03:28;;;;;;;11.23;7.18;;;0.20;99.90;;;;;;5068394;28;20046;-75
2024/01/15 04:05:53;;;;;;;12.02;6.63;;;0.40;99.90;;;;;;5068124;28;20130;-74
2024/01/15 04:08:19;;;;;;;14.82;7.40;;;0.40;99.90;;;;;;5066649;28;20031;-74
2024/01/15 04:10:45;;;;;;;10.77;6.32;;;0.40;99.90;;;;;;5065801;28;20032;-73
2024/01/15 04:13:11;;;;;;;11.57;6.68;;;0.40;99.90;;;;;;5069070;28;20034;-74
2024/01/15 04:15:37;;;;;;;10.25;6.13;;;0.40;99.90;;;;;;5065518;28;20147;-73
2024/01/15 04:18:03;;;;;;;10.85;6.50;;;0.20;99.90;;;;;;5061946;28;20028;-74
2024/01/15 04:20:29;;;;;;;11.20;6.03;;;0.30;99.90;;;;;;5067794;28;20032;-74
2024/01/15 04:22:55;;;;;;;9.82;5.50;;;0.20;99.90;;;;;;5067362;28;20072;-73
2024/01/15 04:25:20;;;;;;;10.40;6.60;;;0.30;99.90;;;;;;5067502;28;20040;-74
2024/01/15 04:27:46;;;;;;;11.95;6.80;;;0.20;99.90;;;;;;5070375;28;20032;-73
2024/01/15 04:30:12;;;;;;;10.07;6.28;;;0.10;99.90;;;;;;5068416;28;20085;-74
2024/01/15 04:32:38;;;;;;;13.77;6.55;;;0.00;99.90;;;;;;5067168;28;20044;-74
2024/01/15 04:35:04;;;;;;;10.07;5.82;;;0.10;99.90;;;;;;5071857;28;20055;-73
2024/01/15 04:37:29;;;;;;;14.50;6.57;;;0.20;99.90;;;;;;5070633;28;20060;-73
2024/01/15 04:39:57;;;;;;;12.65;6.72;;;0.10;99.90;;;;;;5069993;28;20734;-73
2024/01/15 04:42:23;;;;;;;11.32;6.32;;;0.00;99.90;;;;;;5072506;28;20036;-73
2024/01/15 04:44:48;;;;;;;10.50;6.15;;;-0.10;99.90;;;;;;5070555;28;20039;-73
2024/01/15 04:47:14;;;;;;;9.75;6.32;;;0.00;99.90;;;;;;5071104;28;20159;-73
2024/01/15 04:49:40;;;;;;;12.75;6.45;;;0.20;99.90;;;;;;5071351;28;20595;-73
2024/01/15 04:52:06;;;;;;;11.35;6.55;;;0.30;99.90;;;;;;5070042;28;20028;-73
2024/01/15 04:54:31;;;;;;;9.95;5.50;;;0.20;99.90;;;;;;5069405;28;20044;-73
2024/01/15 04:56:57;;;;;;;12.20;5.60;;;0.30;99.90;;;;;;5072481;28;20112;-74
2024/01/15 04:59:23;;;;;;;9.93;5.22;;;0.40;99.90;;;;;;5067685;28;20516;-74
2024/01/15 05:01:48;;;;;;;10.32;5.43;;;0.40;99.90;;;;;;5065719;28;20474;-73
2024/01/15 05:04:14;;;;;;;11.18;5.53;;;0.30;99.90;;;;;;5068686;28;20462;-73
2024/01/15 05:06:40;;;;;;;10.55;5.63;;;0.20;99.90;;;;;;5066336;28;20048;-74
2024/01/15 05:09:06;;;;;;;10.88;5.60;;;0.10;99.90;;;;;;5066929;28;20435;-73
2024/01/15 05:11:32;;;;;;;9.88;5.20;;;0.20;99.90;;;;;;5050443;28;20043;-74
2024/01/15 05:13:58;;;;;;;9.90;5.88;;;0.20;99.90;;;;;;5068749;28;20032;-73
2024/01/15 05:16:23;;;;;;;8.48;5.47;;;0.10;99.90;;;;;;5067249;28;20036;-73
2024/01/15 05:18:49;;;;;;;11.07;6.30;;;0.00;99.90;;;;;;5068610;28;20454;-73
2024/01/15 05:21:15;;;;;;;12.50;6.13;;;-0.10;99.90;;;;;;5067115;28;20370;-73
2024/01/15 05:23:40;;;;;;;10.80;6.65;;;-0.10;99.90;;;;;;5065681;28;20032;-73
2024/01/15 05:26:06;;;;;;;11.63;5.75;;;-0.20;99.90;;;;;;5066542;28;20127;-73
2024/01/15 05:28:32;;;;;;;12.00;7.22;;;-0.10;99.90;;;;;;5068505;28;20042;-74
2024/01/15 05:30:57;;;;;;;13.90;7.07;;;0.00;99.90;;;;;;5065694;28;20127;-74
2024/01/15 05:33:24;;;;;;;14.20;7.03;;;-0.10;99.90;;;;;;5067276;28;20153;-73
2024/01/15 05:35:50;;;;;;;15.90;9.98;;;-0.10;99.90;;;;;;5067421;28;20036;-73
2024/01/15 05:38:16;;;;;;;18.07;11.43;;;-0.20;99.90;;;;;;5067048;28;20032;-73
2024/01/15 05:40:42;;;;;;;16.50;7.88;;;-0.20;99.90;;;;;;5066897;28;20035;-73
2024/01/15 05:43:08;;;;;;;10.70;6.03;;;-0.30;99.90;;;;;;5067356;28;20505;-73
2024/01/15 05:45:38;;;;;;;14.10;7.70;;;-0.10;99.90;;;;;;5064916;28;20490;-73
2024/01/15 05:48:04;;;;;;;12.47;8.20;;;-0.20;99.90;;;;;;5066434;28;20036;-73
2024/01/15 05:50:30;;;;;;;11.38;7.03;;;-0.20;99.90;;;;;;5066582;28;20036;-73
2024/01/15 05:52:55;;;;;;;9.57;5.75;;;-0.20;99.90;;;;;;5066182;28;20081;-73
2024/01/15 05:55:21;;;;;;;12.18;5.80;;;-0.10;99.90;;;;;;5066036;28;20048;-73
2024/01/15 05:57:47;;;;;;;7.88;4.55;;;0.10;99.90;;;;;;5064941;28;20035;-74
2024/01/15 06:00:13;;;;;;;10.80;5.63;;;0.00;99.90;;;;;;5067352;28;20518;-73
2024/01/15 06:02:39;;;;;;;8.50;4.97;;;-0.10;99.90;;;;;;5060514;28;20252;-73
2024/01/15 06:05:06;;;;;;;11.18;5.20;;;0.20;99.90;;;;;;5065602;28;20048;-74
2024/01/15 06:07:33;;;;;;;7.38;4.57;;;0.30;99.90;;;;;;5066173;28;20036;-73
2024/01/15 06:09:59;;;;;;;8.73;4.70;;;0.30;99.90;;;;;;5067495;28;20671;-73
2024/01/15 06:12:24;;;;;;;8.90;5.07;;;0.40;99.90;;;;;;5069960;28;20031;-73
2024/01/15 06:14:50;;;;;;;9.27;4.85;;;0.30;99.90;;;;;;5068070;28;20028;-73
2024/01/15 06:17:16;;;;;;;8.13;4.80;;;0.30;99.90;;;;;;5068152;28;20110;-73
2024/01/15 06:19:41;;;;;;;11.55;5.57;;;0.40;99.90;;;;;;5071693;28;20047;-77
2024/01/15 06:22:07;;;;;;;8.47;4.60;;;0.40;99.90;;;;;;5070572;28;20118;-72
2024/01/15 06:24:33;;;;;;;10.23;5.50;;;0.50;99.90;;;;;;5067558;28;20032;-73
2024/01/15 06:26:59;;;;;;;10.60;4.88;;;0.40;99.90;;;;;;5069883;28;20036;-73
2024/01/15 06:29:27;;;;;;;9.52;5.13;;;0.30;99.90;;;;;;5068900;28;20086;-73
2024/01/15 06:31:53;;;;;;;9.65;4.22;;;0.20;99.90;;;;;;5067128;28;20056;-73
2024/01/15 06:34:19;;;;;;;10.23;4.70;;;0.20;99.90;;;;;;5070065;28;20462;-75
2024/01/15 06:36:44;;;;;;;13.13;6.95;;;0.20;99.90;;;;;;5072306;28;20359;-72
2024/01/15 06:39:10;;;;;;;9.90;5.97;;;0.20;99.90;;;;;;5068791;28;20044;-73
2024/01/15 06:41:45;;;;;;;10.88;5.78;;;0.20;99.90;;;;;;5065615;28;20027;-73
2024/01/15 06:44:11;;;;;;;9.40;5.30;;;0.00;99.90;;;;;;5065286;28;20094;-73
2024/01/15 06:46:41;;;;;;;9.30;4.82;;;0.10;99.90;;;;;;5064214;28;20123;-73
2024/01/15 06:49:07;;;;;;;13.90;6.22;;;0.10;99.90;;;;;;5064677;28;20036;-73
2024/01/15 06:51:32;;;;;;;12.57;7.47;;;0.20;99.90;;;;;;5065227;28;20440;-73
2024/01/15 06:53:58;;;;;;;22.17;12.05;;;0.20;99.90;;;;;;5064370;28;21055;-74
2024/01/15 06:56:24;;;;;;;31.60;15.48;;;0.00;99.90;;;;;;5064433;28;20401;-73
2024/01/15 06:58:49;;;;;;;22.27;12.07;;;-0.10;99.90;;;;;;5065855;28;20085;-73
2024/01/15 07:01:15;;;;;;;20.00;11.60;;;-0.20;99.90;;;;;;5062582;28;20493;-73
2024/01/15 07:03:41;;;;;;;13.32;7.55;;;-0.20;99.90;;;;;;5059572;28;20052;-73
2024/01/15 07:06:06;;;;;;;12.30;7.03;;;-0.20;99.90;;;;;;5056033;28;20114;-74
2024/01/15 07:08:32;;;;;;;10.60;5.97;;;-0.40;99.90;;;;;;5062277;28;20036;-72
2024/01/15 07:10:58;;;;;;;10.02;6.10;;;-0.50;99.90;;;;;;5064256;28;20036;-73
2024/01/15 07:13:23;;;;;;;9.82;5.70;;;-0.40;99.90;;;;;;5065022;28;20448;-72
2024/01/15 07:15:50;;;;;;;8.93;4.65;;;-0.30;99.90;;;;;;5064398;28;20781;-75
2024/01/15 07:18:16;;;;;;;9.68;4.57;;;-0.10;99.90;;;;;;5065736;28;20060;-72
2024/01/15 07:20:42;;;;;;;8.68;4.95;;;-0.20;99.90;;;;;;5064992;28;20034;-72
2024/01/15 07:23:07;;;;;;;7.80;4.88;;;-0.10;99.90;;;;;;5064388;28;25402;-72
2024/01/15 07:25:33;;;;;;;11.13;5.38;;;-0.20;99.90;;;;;;5065570;28;20048;-73
2024/01/15 07:27:59;;;;;;;7.57;4.45;;;-0.10;99.90;;;;;;5065291;28;20385;-73
2024/01/15 07:30:24;;;;;;;8.95;4.47;;;-0.10;99.90;;;;;;5065788;28;20057;-72
2024/01/15 07:32:52;;;;;;;9.07;4.93;;;0.00;99.90;;;;;;5065388;28;20052;-73
2024/01/15 07:35:18;;;;;;;8.73;4.87;;;0.00;99.90;;;;;;5066921;28;20486;-73
2024/01/15 07:37:44;;;;;;;7.85;5.32;;;-0.10;99.90;;;;;;5065969;28;20078;-74
2024/01/15 07:40:10;;;;;;;9.23;4.35;;;-0.10;99.90;;;;;;5065490;28;20039;-73
2024/01/15 07:42:36;;;;;;;7.15;4.32;;;-0.10;99.90;;;;;;5065892;28;20036;-76
2024/01/15 07:45:02;;;;;;;6.93;4.38;;;-0.10;99.90;;;;;;5065881;28;20513;-76
2024/01/15 07:47:28;;;;;;;7.70;4.28;;;-0.10;99.90;;;;;;5066329;28;20040;-75
2024/01/15 07:49:54;;;;;;;8.32;4.28;;;0.10;99.90;;;;;;5066335;28;20039;-77
2024/01/15 07:52:19;;;;;;;8.43;5.05;;;0.20;99.90;;;;;;5065413;28;20032;-73
2024/01/15 07:54:45;;;;;;;8.63;4.82;;;0.40;99.90;;;;;;5069434;28;20063;-72
2024/01/15 07:57:11;;;;;;;11.48;6.15;;;0.50;99.90;;;;;;5069492;28;20119;-73
2024/01/15 07:59:36;;;;;;;8.65;6.10;;;0.50;99.90;;;;;;5069471;28;20105;-75
2024/01/15 08:02:02;;;;;;;7.22;4.70;;;0.30;99.90;;;;;;5069843;28;20791;-76
2024/01/15 08:04:28;;;;;;;6.97;4.47;;;0.60;99.90;;;;;;5069083;28;20433;-74
2024/01/15 08:06:54;;;;;;;8.70;5.10;;;0.50;99.90;;;;;;5069146;28;20039;-73
2024/01/15 08:09:19;;;;;;;7.70;4.30;;;0.40;99.90;;;;;;5069946;28;20091;-73
2024/01/15 08:11:45;;;;;;;10.00;5.55;;;0.20;99.90;;;;;;5068521;28;20032;-74
2024/01/15 08:14:11;;;;;;;11.73;6.15;;;0.10;99.90;;;;;;5069767;28;20463;-75
2024/01/15 08:16:38;;;;;;;10.82;5.35;;;0.00;99.90;;;;;;5070925;28;20032;-73
2024/01/15 08:19:04;;;;;;;11.00;6.05;;;0.00;99.90;;;;;;5069851;28;20059;-76
2024/01/15 08:21:30;;;;;;;10.60;5.38;;;-0.10;99.90;;;;;;5068932;28;20150;-73
2024/01/15 08:24:00;;;;;;;10.95;5.88;;;-0.20;99.90;;;;;;5070147;28;20051;-74
2024/01/15 08:26:25;;;;;;;13.77;6.05;;;-0.30;99.90;;;;;;5069287;28;20062;-73
2024/01/15 08:28:51;;;;;;;23.40;9.15;;;-0.30;99.90;;;;;;5067962;28;20032;-73
2024/01/15 08:31:17;;;;;;;12.85;6.90;;;-0.20;99.90;;;;;;5069793;28;20027;-75
2024/01/15 08:33:43;;;;;;;12.55;6.40;;;-0.10;99.90;;;;;;5068902;28;20062;-74
2024/01/15 08:36:09;;;;;;;9.30;5.03;;;-0.10;99.90;;;;;;5068561;28;20036;-73
2024/01/15 08:38:35;;;;;;;8.23;4.75;;;-0.10;99.90;;;;;;5070145;28;20769;-74
2024/01/15 08:41:01;;;;;;;9.75;4.97;;;-0.10;99.90;;;;;;5067749;28;20111;-74
2024/01/15 08:43:27;;;;;;;12.23;5.70;;;-0.10;99.90;;;;;;5067725;28;20112;-74
2024/01/15 08:45:53;;;;;;;11.88;5.65;;;-0.10;99.90;;;;;;5070084;28;20098;-74
2024/01/15 08:48:19;;;;;;;10.20;5.78;;;0.00;99.90;;;;;;5069791;28;20058;-74
2024/01/15 08:50:48;;;;;;;11.10;5.80;;;0.10;99.90;;;;;;5072130;28;20036;-74
2024/01/15 08:53:14;;;;;;;9.48;4.95;;;0.10;99.90;;;;;;5071956;28;20024;-73
2024/01/15 08:55:42;;;;;;;10.60;5.65;;;0.20;99.90;;;;;;5073225;28;20146;-74
2024/01/15 08:58:08;;;;;;;9.77;4.97;;;-0.10;99.90;;;;;;5071054;28;20056;-73
2024/01/15 09:00:34;;;;;;;9.38;4.68;;;-0.10;99.90;;;;;;5072116;28;20123;-74
2024/01/15 09:02:59;;;;;;;10.73;5.15;;;0.20;99.90;;;;;;5072683;28;20035;-74
2024/01/15 09:05:25;;;;;;;8.70;4.70;;;0.40;99.90;;;;;;5071242;28;20036;-74
2024/01/15 09:07:52;;;;;;;8.47;4.70;;;0.60;99.90;;;;;;5070869;28;20064;-74
2024/01/15 09:10:18;;;;;;;9.63;4.25;;;0.60;99.90;;;;;;5071160;28;20040;-75
2024/01/15 09:12:44;;;;;;;7.22;4.60;;;0.70;99.90;;;;;;5070514;28;20082;-74
2024/01/15 09:15:10;;;;;;;11.25;4.97;;;0.60;99.90;;;;;;5070247;28;20482;-74
2024/01/15 09:17:36;;;;;;;11.20;4.80;;;0.60;99.90;;;;;;5072788;28;20032;-74
2024/01/15 09:20:04;;;;;;;10.55;5.00;;;0.40;99.90;;;;;;5070145;28;20041;-74
2024/01/15 09:22:30;;;;;;;11.23;5.07;;;0.40;99.90;;;;;;5069005;28;20093;-74
2024/01/15 09:24:55;;;;;;;10.10;4.78;;;0.50;99.90;;;;;;5069457;28;20044;-74
2024/01/15 09:27:21;;;;;;;9.57;4.50;;;0.40;99.90;;;;;;5067622;28;20025;-74
2024/01/15 09:29:47;;;;;;;9.00;4.93;;;0.40;99.90;;;;;;5068112;28;20043;-74
2024/01/15 09:32:13;;;;;;;10.25;5.00;;;0.40;99.90;;;;;;5067486;28;20036;-74
2024/01/15 09:34:39;;;;;;;8.73;4.63;;;0.50;99.90;;;;;;5066092;28;20073;-75
2024/01/15 09:37:05;;;;;;;9.00;5.38;;;0.50;99.90;;;;;;5066784;28;20122;-74
2024/01/15 09:39:31;;;;;;;12.48;5.38;;;0.40;99.90;;;;;;5067841;28;20612;-73
2024/01/15 09:41:58;;;;;;;8.20;4.80;;;0.60;99.90;;;;;;5065075;28;20283;-75
2024/01/15 09:44:24;;;;;;;10.68;5.00;;;0.40;99.90;;;;;;5067405;28;20032;-75
2024/01/15 09:46:52;;;;;;;9.25;5.30;;;0.40;99.90;;;;;;5067417;28;20040;-74
2024/01/15 09:49:19;;;;;;;10.02;5.65;;;0.40;99.90;;;;;;5066803;28;20670;-74
2024/01/15 09:51:45;;;;;;;7.45;4.57;;;0.50;99.90;;;;;;5068397;28;20042;-74
2024/01/15 09:54:13;;;;;;;8.38;4.72;;;0.50;99.90;;;;;;5071195;28;20493;-73
2024/01/15 09:56:39;;;;;;;9.90;4.72;;;0.50;99.90;;;;;;5070352;28;20678;-74
2024/01/15 09:59:06;;;;;;;13.05;4.22;;;0.30;99.90;;;;;;5069533;28;20063;-73
2024/01/15 10:01:32;;;;;;;8.57;4.65;;;0.30;99.90;;;;;;5064200;28;20028;-74
2024/01/15 10:03:58;;;;;;;7.95;4.82;;;0.30;99.90;;;;;;5067233;28;20125;-73
2024/01/15 10:06:27;;;;;;;8.82;5.00;;;0.40;99.90;;;;;;5067281;28;20527;-73
2024/01/15 10:08:56;;;;;;;10.00;4.95;;;0.30;99.90;;;;;;5066481;28;20126;-74
2024/01/15 10:11:22;;;;;;;7.85;4.22;;;0.50;99.90;;;;;;5068148;28;20051;-73
2024/01/15 10:13:52;;;;;;;9.25;4.90;;;0.50;99.90;;;;;;5067398;28;20063;-74
2024/01/15 10:16:17;;;;;;;9.15;4.90;;;0.70;99.90;;;;;;5065792;28;20109;-73
2024/01/15 10:18:43;;;;;;;10.43;4.40;;;0.70;99.90;;;;;;5069991;28;20029;-74
2024/01/15 10:21:09;;;;;;;9.10;4.80;;;0.70;99.90;;;;;;5069166;28;20028;-73
2024/01/15 10:23:36;;;;;;;9.07;4.47;;;0.70;99.90;;;;;;5070287;28;20032;-74
2024/01/15 10:26:02;;;;;;;11.77;4.70;;;0.70;99.90;;;;;;5070271;28;20028;-74
2024/01/15 10:28:30;;;;;;;8.27;4.80;;;0.70;99.90;;;;;;5070796;28;20047;-74
2024/01/15 10:30:57;;;;;;;7.50;4.82;;;0.80;99.90;;;;;;5064934;28;20033;-76
2024/01/15 10:33:26;;;;;;;12.10;5.55;;;0.90;99.90;;;;;;5066597;28;20043;-73
2024/01/15 10:35:56;;;;;;;15.73;5.72;;;0.90;99.90;;;;;;5068151;28;20118;-74
2024/01/15 10:38:23;;;;;;;7.80;5.22;;;0.90;99.90;;;;;;5065955;28;20116;-73
2024/01/15 10:40:56;;;;;;;9.23;5.20;;;0.90;99.90;;;;;;5066053;28;20048;-74
2024/01/15 10:43:22;;;;;;;7.82;4.75;;;1.00;99.90;;;;;;5069111;28;20046;-74
2024/01/15 10:45:51;;;;;;;11.20;4.72;;;1.10;99.90;;;;;;5070379;28;20044;-73
2024/01/15 10:48:17;;;;;;;8.75;5.28;;;1.20;99.90;;;;;;5069485;28;20371;-73
2024/01/15 10:50:45;;;;;;;9.05;5.20;;;1.20;99.90;;;;;;5069523;28;20035;-74
2024/01/15 10:53:12;;;;;;;9.63;5.20;;;1.40;99.90;;;;;;5069336;28;20028;-73
2024/01/15 10:55:41;;;;;;;7.97;4.53;;;1.50;99.90;;;;;;5070299;28;20813;-73
2024/01/15 10:58:07;;;;;;;9.73;5.43;;;1.60;99.90;;;;;;5068818;28;20036;-74
2024/01/15 11:00:37;;;;;;;12.75;5.28;;;1.70;99.90;;;;;;5069198;28;20035;-74
2024/01/15 11:03:06;;;;;;;8.20;5.00;;;1.90;99.90;;;;;;5065944;28;20036;-75
2024/01/15 11:05:38;;;;;;;10.70;5.10;;;1.90;99.90;;;;;;5068585;28;20040;-74
2024/01/15 11:08:07;;;;;;;11.38;5.25;;;2.10;99.90;;;;;;5066974;28;20367;-74
2024/01/15 11:10:42;;;;;;;9.10;5.82;;;2.30;99.90;;;;;;5067473;28;20036;-74
2024/01/15 11:13:10;;;;;;;9.77;5.78;;;2.40;99.90;;;;;;5067362;28;20047;-73
2024/01/15 11:16:02;;;;;;;9.93;5.90;;;2.40;99.90;;;;;;5065400;28;20036;-74
2024/01/15 11:18:37;;;;;;;11.30;6.28;;;2.50;99.90;;;;;;5057415;28;20041;-74
2024/01/15 11:21:15;;;;;;;;;;;2.50;99.90;;;;;;5067080;28;20482;-74
2024/01/15 11:23:46;;;;;;;11.07;5.82;;;2.60;99.90;;;;;;5067162;28;20778;-74
2024/01/15 11:26:30;;;;;;;9.90;6.55;;;2.70;99.90;;;;;;5066718;28;20044;-74
2024/01/15 11:28:58;;;;;;;11.05;6.57;;;2.80;99.90;;;;;;5069307;28;20040;-74
2024/01/15 11:31:40;;;;;;;12.63;6.70;;;3.10;99.90;;;;;;5070681;28;20599;-73
2024/01/15 11:34:10;;;;;;;10.27;6.78;;;3.20;99.90;;;;;;5074384;28;20093;-75
2024/01/15 11:36:48;;;;;;;16.10;7.35;;;3.20;99.90;;;;;;5071380;28;20024;-74
2024/01/15 11:39:32;;;;;;;12.73;6.53;;;3.20;99.70;;;;;;5072643;28;20036;-73
2024/01/15 11:41:59;;;;;;;15.15;6.32;;;3.20;99.80;;;;;;5069747;28;20118;-74
2024/01/15 11:44:28;;;;;;;8.70;5.88;;;3.30;99.90;;;;;;5072880;28;20097;-73
2024/01/15 11:46:57;;;;;;;12.52;5.63;;;3.50;99.50;;;;;;5053219;28;20694;-74
2024/01/15 11:49:32;;;;;;;12.07;5.45;;;3.50;99.00;;;;;;5069405;28;20037;-73
2024/01/15 11:51:58;;;;;;;;;;;3.60;99.20;;;;;;5070397;28;20071;-74
2024/01/15 11:54:25;;;;;;;11.00;5.45;;;3.70;99.20;;;;;;5070491;28;19924;-74
2024/01/15 11:56:51;;;;;;;9.88;5.55;;;3.60;98.90;;;;;;5069474;28;20050;-77
2024/01/15 11:59:18;;;;;;;16.33;6.65;;;3.80;99.10;;;;;;5069959;28;20068;-73
2024/01/15 12:01:45;;;;;;;9.88;6.18;;;3.90;98.90;;;;;;5068671;28;20097;-74
2024/01/15 12:04:10;;;;;;;12.20;5.38;;;4.00;98.80;;;;;;5069976;28;20496;-74
2024/01/15 12:06:36;;;;;;;9.65;6.07;;;3.90;98.50;;;;;;5067658;28;20047;-75
2024/01/15 12:09:08;;;;;;;10.40;5.25;;;4.00;98.90;;;;;;5070813;28;20416;-73
2024/01/15 12:11:36;;;;;;;10.50;6.85;;;4.10;98.60;;;;;;5070966;28;20490;-74
2024/01/15 12:14:02;;;;;;;9.75;6.13;;;4.10;98.50;;;;;;5068687;28;20040;-73
2024/01/15 12:16:27;;;;;;;9.07;5.78;;;4.20;98.70;;;;;;5069619;28;20067;-75
2024/01/15 12:18:53;;;;;;;12.27;5.60;;;4.30;98.50;;;;;;5072213;28;20360;-73
2024/01/15 12:21:19;;;;;;;9.25;6.10;;;4.40;98.80;;;;;;5072081;28;20036;-73
2024/01/15 12:23:49;;;;;;;9.98;5.88;;;4.40;98.30;;;;;;5072453;28;20028;-74
2024/01/15 12:26:14;;;;;;;11.45;6.15;;;4.40;98.20;;;;;;5071930;28;20047;-74
2024/01/15 12:28:40;;;;;;;10.90;6.50;;;4.50;98.50;;;;;;5071991;28;20074;-73
2024/01/15 12:31:06;;;;;;;13.05;7.97;;;4.60;98.30;;;;;;5069950;28;20732;-73
2024/01/15 12:33:32;;;;;;;12.10;7.53;;;4.60;98.10;;;;;;5071471;28;20032;-74
2024/01/15 12:35:58;;;;;;;12.40;6.85;;;4.60;98.10;;;;;;5068156;28;20126;-73
2024/01/15 12:38:24;;;;;;;12.68;7.22;;;4.80;98.20;;;;;;5069612;28;20040;-74
2024/01/15 12:40:50;;;;;;;12.00;7.40;;;4.80;98.00;;;;;;5068094;28;20425;-73
2024/01/15 12:43:15;;;;;;;14.45;6.68;;;4.50;97.60;;;;;;5068889;28;20907;-74